sensor_id;sensor_type;location;lat;lon;timestamp;P1;durP1;ratioP1;P2;durP2;ratioP2
45236;SDS011;30973;51.442;3.580;2023-04-06T00:00:54;35.83;;;24.35;;
45236;SDS011;30973;51.442;3.580;2023-04-06T00:03:21;33.05;;;24.52;;
45236;SDS011;30973;51.442;3.580;2023-04-06T00:05:48;34.47;;;24.33;;
45236;SDS011;30973;51.442;3.580;2023-04-06T00:08:15;37.67;;;24.65;;
45236;SDS011;30973;51.442;3.580;2023-04-06T00:10:42;35.83;;;24.60;;
45236;SDS011;30973;51.442;3.580;2023-04-06T00:13:09;32.33;;;24.00;;
45236;SDS011;30973;51.442;3.580;2023-04-06T00:15:49;34.22;;;23.85;;
45236;SDS011;30973;51.442;3.580;2023-04-06T00:18:16;33.63;;;24.27;;
45236;SDS011;30973;51.442;3.580;2023-04-06T00:20:43;31.77;;;23.58;;
45236;SDS011;30973;51.442;3.580;2023-04-06T00:23:09;31.27;;;23.90;;
45236;SDS011;30973;51.442;3.580;2023-04-06T00:25:37;34.97;;;24.10;;
45236;SDS011;30973;51.442;3.580;2023-04-06T00:28:03;34.42;;;23.92;;
45236;SDS011;30973;51.442;3.580;2023-04-06T00:30:30;32.92;;;23.73;;
45236;SDS011;30973;51.442;3.580;2023-04-06T00:32:57;33.88;;;24.25;;
45236;SDS011;30973;51.442;3.580;2023-04-06T00:35:24;36.63;;;25.05;;
45236;SDS011;30973;51.442;3.580;2023-04-06T00:37:50;32.58;;;24.02;;
45236;SDS011;30973;51.442;3.580;2023-04-06T00:40:17;37.78;;;24.50;;
45236;SDS011;30973;51.442;3.580;2023-04-06T00:42:44;38.80;;;25.17;;
45236;SDS011;30973;51.442;3.580;2023-04-06T00:45:11;42.50;;;27.70;;
45236;SDS011;30973;51.442;3.580;2023-04-06T00:47:38;42.65;;;28.63;;
45236;SDS011;30973;51.442;3.580;2023-04-06T00:50:05;45.15;;;28.38;;
45236;SDS011;30973;51.442;3.580;2023-04-06T00:52:33;48.67;;;30.98;;
45236;SDS011;30973;51.442;3.580;2023-04-06T00:55:09;43.47;;;30.98;;
45236;SDS011;30973;51.442;3.580;2023-04-06T00:57:40;48.58;;;30.83;;
45236;SDS011;30973;51.442;3.580;2023-04-06T01:00:08;45.88;;;31.17;;
45236;SDS011;30973;51.442;3.580;2023-04-06T01:02:35;45.30;;;31.50;;
45236;SDS011;30973;51.442;3.580;2023-04-06T01:05:02;43.40;;;30.45;;
45236;SDS011;30973;51.442;3.580;2023-04-06T01:07:45;46.50;;;31.60;;
45236;SDS011;30973;51.442;3.580;2023-04-06T01:10:24;49.05;;;32.80;;
45236;SDS011;30973;51.442;3.580;2023-04-06T01:12:56;48.70;;;32.00;;
45236;SDS011;30973;51.442;3.580;2023-04-06T01:15:41;49.30;;;34.20;;
45236;SDS011;30973;51.442;3.580;2023-04-06T01:18:13;48.65;;;34.47;;
45236;SDS011;30973;51.442;3.580;2023-04-06T01:20:46;50.20;;;33.92;;
45236;SDS011;30973;51.442;3.580;2023-04-06T01:23:14;49.75;;;33.90;;
45236;SDS011;30973;51.442;3.580;2023-04-06T01:25:45;50.35;;;34.63;;
45236;SDS011;30973;51.442;3.580;2023-04-06T01:28:11;50.15;;;33.92;;
45236;SDS011;30973;51.442;3.580;2023-04-06T01:30:50;51.80;;;34.45;;
45236;SDS011;30973;51.442;3.580;2023-04-06T01:33:43;49.13;;;35.47;;
45236;SDS011;30973;51.442;3.580;2023-04-06T01:36:14;57.90;;;34.90;;
45236;SDS011;30973;51.442;3.580;2023-04-06T01:38:42;53.20;;;34.33;;
45236;SDS011;30973;51.442;3.580;2023-04-06T01:41:09;49.30;;;33.97;;
45236;SDS011;30973;51.442;3.580;2023-04-06T01:43:49;49.83;;;32.67;;
45236;SDS011;30973;51.442;3.580;2023-04-06T01:46:16;52.60;;;33.17;;
45236;SDS011;30973;51.442;3.580;2023-04-06T01:48:44;50.22;;;33.42;;
45236;SDS011;30973;51.442;3.580;2023-04-06T01:51:31;50.78;;;33.30;;
45236;SDS011;30973;51.442;3.580;2023-04-06T01:54:00;51.83;;;34.17;;
45236;SDS011;30973;51.442;3.580;2023-04-06T01:57:00;50.60;;;33.42;;
45236;SDS011;30973;51.442;3.580;2023-04-06T01:59:30;51.92;;;33.63;;
45236;SDS011;30973;51.442;3.580;2023-04-06T02:02:00;51.72;;;34.22;;
45236;SDS011;30973;51.442;3.580;2023-04-06T02:04:28;50.72;;;33.47;;
45236;SDS011;30973;51.442;3.580;2023-04-06T02:07:06;53.20;;;33.13;;
45236;SDS011;30973;51.442;3.580;2023-04-06T02:09:33;51.83;;;34.17;;
45236;SDS011;30973;51.442;3.580;2023-04-06T02:11:59;50.33;;;33.28;;
45236;SDS011;30973;51.442;3.580;2023-04-06T02:14:30;50.38;;;33.60;;
45236;SDS011;30973;51.442;3.580;2023-04-06T02:16:59;48.03;;;32.63;;
45236;SDS011;30973;51.442;3.580;2023-04-06T02:19:27;50.10;;;33.80;;
45236;SDS011;30973;51.442;3.580;2023-04-06T02:21:54;54.17;;;32.90;;
45236;SDS011;30973;51.442;3.580;2023-04-06T02:24:21;51.28;;;34.05;;
45236;SDS011;30973;51.442;3.580;2023-04-06T02:26:48;52.35;;;34.65;;
45236;SDS011;30973;51.442;3.580;2023-04-06T02:29:15;50.83;;;32.92;;
45236;SDS011;30973;51.442;3.580;2023-04-06T02:31:42;47.85;;;31.20;;
45236;SDS011;30973;51.442;3.580;2023-04-06T02:34:09;52.35;;;33.35;;
45236;SDS011;30973;51.442;3.580;2023-04-06T02:36:44;52.90;;;33.00;;
45236;SDS011;30973;51.442;3.580;2023-04-06T02:39:12;49.40;;;31.60;;
45236;SDS011;30973;51.442;3.580;2023-04-06T02:41:40;43.85;;;29.85;;
45236;SDS011;30973;51.442;3.580;2023-04-06T02:44:07;46.63;;;30.13;;
45236;SDS011;30973;51.442;3.580;2023-04-06T02:46:41;43.53;;;28.00;;
45236;SDS011;30973;51.442;3.580;2023-04-06T02:49:08;44.58;;;29.00;;
45236;SDS011;30973;51.442;3.580;2023-04-06T02:51:35;45.13;;;29.48;;
45236;SDS011;30973;51.442;3.580;2023-04-06T02:54:13;46.38;;;30.15;;
45236;SDS011;30973;51.442;3.580;2023-04-06T02:56:40;51.28;;;31.05;;
45236;SDS011;30973;51.442;3.580;2023-04-06T02:59:08;45.78;;;29.60;;
45236;SDS011;30973;51.442;3.580;2023-04-06T03:01:35;48.13;;;29.25;;
45236;SDS011;30973;51.442;3.580;2023-04-06T03:04:04;42.55;;;28.27;;
45236;SDS011;30973;51.442;3.580;2023-04-06T03:06:31;44.00;;;26.45;;
45236;SDS011;30973;51.442;3.580;2023-04-06T03:09:08;41.63;;;25.75;;
45236;SDS011;30973;51.442;3.580;2023-04-06T03:11:35;40.75;;;25.75;;
45236;SDS011;30973;51.442;3.580;2023-04-06T03:14:02;44.13;;;26.30;;
45236;SDS011;30973;51.442;3.580;2023-04-06T03:16:28;39.67;;;25.13;;
45236;SDS011;30973;51.442;3.580;2023-04-06T03:18:57;36.33;;;23.95;;
45236;SDS011;30973;51.442;3.580;2023-04-06T03:21:31;38.20;;;23.70;;
45236;SDS011;30973;51.442;3.580;2023-04-06T03:23:58;41.50;;;25.08;;
45236;SDS011;30973;51.442;3.580;2023-04-06T03:26:25;39.25;;;23.77;;
45236;SDS011;30973;51.442;3.580;2023-04-06T03:28:52;34.78;;;22.13;;
45236;SDS011;30973;51.442;3.580;2023-04-06T03:31:24;36.28;;;23.25;;
45236;SDS011;30973;51.442;3.580;2023-04-06T03:33:56;38.22;;;24.40;;
45236;SDS011;30973;51.442;3.580;2023-04-06T03:36:28;37.33;;;23.25;;
45236;SDS011;30973;51.442;3.580;2023-04-06T03:38:56;39.13;;;23.02;;
45236;SDS011;30973;51.442;3.580;2023-04-06T03:41:23;40.55;;;24.83;;
45236;SDS011;30973;51.442;3.580;2023-04-06T03:44:12;39.83;;;24.58;;
45236;SDS011;30973;51.442;3.580;2023-04-06T03:46:39;37.47;;;22.92;;
45236;SDS011;30973;51.442;3.580;2023-04-06T03:49:06;35.50;;;23.00;;
45236;SDS011;30973;51.442;3.580;2023-04-06T03:51:34;35.28;;;23.58;;
45236;SDS011;30973;51.442;3.580;2023-04-06T03:54:01;37.05;;;23.25;;
45236;SDS011;30973;51.442;3.580;2023-04-06T03:56:27;34.80;;;21.10;;
45236;SDS011;30973;51.442;3.580;2023-04-06T03:58:54;35.80;;;20.92;;
45236;SDS011;30973;51.442;3.580;2023-04-06T04:01:21;34.95;;;22.02;;
45236;SDS011;30973;51.442;3.580;2023-04-06T04:03:48;35.65;;;22.73;;
45236;SDS011;30973;51.442;3.580;2023-04-06T04:06:17;33.17;;;22.30;;
45236;SDS011;30973;51.442;3.580;2023-04-06T04:08:57;33.80;;;21.15;;
45236;SDS011;30973;51.442;3.580;2023-04-06T04:11:24;35.95;;;21.27;;
45236;SDS011;30973;51.442;3.580;2023-04-06T04:13:58;34.55;;;22.85;;
45236;SDS011;30973;51.442;3.580;2023-04-06T04:16:25;33.15;;;22.05;;
45236;SDS011;30973;51.442;3.580;2023-04-06T04:18:51;37.13;;;21.20;;
45236;SDS011;30973;51.442;3.580;2023-04-06T04:21:18;37.58;;;21.17;;
45236;SDS011;30973;51.442;3.580;2023-04-06T04:23:45;31.33;;;21.08;;
45236;SDS011;30973;51.442;3.580;2023-04-06T04:26:12;35.30;;;23.08;;
45236;SDS011;30973;51.442;3.580;2023-04-06T04:28:43;34.42;;;20.60;;
45236;SDS011;30973;51.442;3.580;2023-04-06T04:31:10;36.03;;;21.48;;
45236;SDS011;30973;51.442;3.580;2023-04-06T04:33:38;33.08;;;21.10;;
45236;SDS011;30973;51.442;3.580;2023-04-06T04:36:10;35.70;;;21.60;;
45236;SDS011;30973;51.442;3.580;2023-04-06T04:38:41;31.00;;;20.33;;
45236;SDS011;30973;51.442;3.580;2023-04-06T04:41:09;33.40;;;20.75;;
45236;SDS011;30973;51.442;3.580;2023-04-06T04:43:39;30.77;;;20.45;;
45236;SDS011;30973;51.442;3.580;2023-04-06T04:46:05;35.03;;;22.02;;
45236;SDS011;30973;51.442;3.580;2023-04-06T04:48:37;37.72;;;22.42;;
45236;SDS011;30973;51.442;3.580;2023-04-06T04:51:06;36.60;;;21.55;;
45236;SDS011;30973;51.442;3.580;2023-04-06T04:53:53;32.67;;;21.58;;
45236;SDS011;30973;51.442;3.580;2023-04-06T04:56:24;30.27;;;19.30;;
45236;SDS011;30973;51.442;3.580;2023-04-06T04:58:56;36.80;;;20.77;;
45236;SDS011;30973;51.442;3.580;2023-04-06T05:01:24;31.40;;;19.95;;
45236;SDS011;30973;51.442;3.580;2023-04-06T05:04:20;30.30;;;20.33;;
45236;SDS011;30973;51.442;3.580;2023-04-06T05:06:47;31.10;;;20.55;;
45236;SDS011;30973;51.442;3.580;2023-04-06T05:09:15;33.75;;;21.88;;
45236;SDS011;30973;51.442;3.580;2023-04-06T05:11:42;31.40;;;20.83;;
45236;SDS011;30973;51.442;3.580;2023-04-06T05:14:09;32.92;;;19.92;;
45236;SDS011;30973;51.442;3.580;2023-04-06T05:16:36;31.85;;;20.00;;
45236;SDS011;30973;51.442;3.580;2023-04-06T05:19:03;33.13;;;18.98;;
45236;SDS011;30973;51.442;3.580;2023-04-06T05:21:38;26.98;;;17.45;;
45236;SDS011;30973;51.442;3.580;2023-04-06T05:24:06;25.48;;;16.75;;
45236;SDS011;30973;51.442;3.580;2023-04-06T05:26:33;24.23;;;15.73;;
45236;SDS011;30973;51.442;3.580;2023-04-06T05:29:06;24.40;;;16.63;;
45236;SDS011;30973;51.442;3.580;2023-04-06T05:31:35;28.27;;;16.77;;
45236;SDS011;30973;51.442;3.580;2023-04-06T05:34:02;24.75;;;16.25;;
45236;SDS011;30973;51.442;3.580;2023-04-06T05:36:33;22.73;;;14.55;;
45236;SDS011;30973;51.442;3.580;2023-04-06T05:39:05;22.77;;;15.13;;
45236;SDS011;30973;51.442;3.580;2023-04-06T05:41:43;22.30;;;13.88;;
45236;SDS011;30973;51.442;3.580;2023-04-06T05:44:15;25.30;;;16.00;;
45236;SDS011;30973;51.442;3.580;2023-04-06T05:46:46;22.30;;;13.77;;
45236;SDS011;30973;51.442;3.580;2023-04-06T05:49:15;19.98;;;13.57;;
45236;SDS011;30973;51.442;3.580;2023-04-06T05:51:42;23.52;;;13.18;;
45236;SDS011;30973;51.442;3.580;2023-04-06T05:54:09;21.00;;;13.73;;
45236;SDS011;30973;51.442;3.580;2023-04-06T05:56:36;19.52;;;13.35;;
45236;SDS011;30973;51.442;3.580;2023-04-06T05:59:05;20.38;;;12.65;;
45236;SDS011;30973;51.442;3.580;2023-04-06T06:01:36;17.88;;;11.20;;
45236;SDS011;30973;51.442;3.580;2023-04-06T06:04:04;15.38;;;10.15;;
45236;SDS011;30973;51.442;3.580;2023-04-06T06:06:35;18.45;;;11.50;;
45236;SDS011;30973;51.442;3.580;2023-04-06T06:09:25;15.73;;;11.10;;
45236;SDS011;30973;51.442;3.580;2023-04-06T06:12:07;20.52;;;11.40;;
45236;SDS011;30973;51.442;3.580;2023-04-06T06:14:36;16.35;;;10.70;;
45236;SDS011;30973;51.442;3.580;2023-04-06T06:17:03;15.40;;;10.20;;
45236;SDS011;30973;51.442;3.580;2023-04-06T06:19:30;16.15;;;10.75;;
45236;SDS011;30973;51.442;3.580;2023-04-06T06:22:01;14.40;;;9.40;;
45236;SDS011;30973;51.442;3.580;2023-04-06T06:24:29;13.43;;;9.00;;
45236;SDS011;30973;51.442;3.580;2023-04-06T06:26:59;14.60;;;8.30;;
45236;SDS011;30973;51.442;3.580;2023-04-06T06:29:28;14.82;;;8.60;;
45236;SDS011;30973;51.442;3.580;2023-04-06T06:31:55;11.77;;;7.75;;
45236;SDS011;30973;51.442;3.580;2023-04-06T06:34:23;11.52;;;8.00;;
45236;SDS011;30973;51.442;3.580;2023-04-06T06:36:55;9.48;;;6.93;;
45236;SDS011;30973;51.442;3.580;2023-04-06T06:39:24;9.25;;;6.15;;
45236;SDS011;30973;51.442;3.580;2023-04-06T06:41:52;12.30;;;6.38;;
45236;SDS011;30973;51.442;3.580;2023-04-06T06:44:22;9.90;;;6.78;;
45236;SDS011;30973;51.442;3.580;2023-04-06T06:46:53;11.07;;;7.13;;
45236;SDS011;30973;51.442;3.580;2023-04-06T06:49:20;10.32;;;6.00;;
45236;SDS011;30973;51.442;3.580;2023-04-06T06:51:47;11.38;;;6.93;;
45236;SDS011;30973;51.442;3.580;2023-04-06T06:54:14;9.88;;;6.78;;
45236;SDS011;30973;51.442;3.580;2023-04-06T06:56:41;9.23;;;5.85;;
45236;SDS011;30973;51.442;3.580;2023-04-06T06:59:08;12.25;;;7.38;;
45236;SDS011;30973;51.442;3.580;2023-04-06T07:01:35;10.73;;;6.18;;
45236;SDS011;30973;51.442;3.580;2023-04-06T07:04:05;11.75;;;6.30;;
45236;SDS011;30973;51.442;3.580;2023-04-06T07:06:37;9.70;;;6.45;;
45236;SDS011;30973;51.442;3.580;2023-04-06T07:09:12;12.73;;;7.63;;
45236;SDS011;30973;51.442;3.580;2023-04-06T07:11:39;10.68;;;7.13;;
45236;SDS011;30973;51.442;3.580;2023-04-06T07:14:10;15.68;;;7.28;;
45236;SDS011;30973;51.442;3.580;2023-04-06T07:16:38;12.00;;;8.30;;
45236;SDS011;30973;51.442;3.580;2023-04-06T07:19:04;12.82;;;8.15;;
45236;SDS011;30973;51.442;3.580;2023-04-06T07:21:31;13.15;;;7.95;;
45236;SDS011;30973;51.442;3.580;2023-04-06T07:23:58;13.65;;;8.27;;
45236;SDS011;30973;51.442;3.580;2023-04-06T07:26:25;12.15;;;7.88;;
45236;SDS011;30973;51.442;3.580;2023-04-06T07:28:52;14.10;;;7.63;;
45236;SDS011;30973;51.442;3.580;2023-04-06T07:31:22;10.55;;;7.60;;
45236;SDS011;30973;51.442;3.580;2023-04-06T07:33:49;11.32;;;7.40;;
45236;SDS011;30973;51.442;3.580;2023-04-06T07:36:19;11.07;;;7.60;;
45236;SDS011;30973;51.442;3.580;2023-04-06T07:38:46;13.48;;;7.72;;
45236;SDS011;30973;51.442;3.580;2023-04-06T07:41:14;14.80;;;7.68;;
45236;SDS011;30973;51.442;3.580;2023-04-06T07:43:42;11.90;;;7.85;;
45236;SDS011;30973;51.442;3.580;2023-04-06T07:46:08;13.23;;;8.13;;
45236;SDS011;30973;51.442;3.580;2023-04-06T07:48:35;11.57;;;7.68;;
45236;SDS011;30973;51.442;3.580;2023-04-06T07:51:04;13.25;;;7.60;;
45236;SDS011;30973;51.442;3.580;2023-04-06T07:53:37;13.68;;;7.97;;
45236;SDS011;30973;51.442;3.580;2023-04-06T07:56:04;13.43;;;8.00;;
45236;SDS011;30973;51.442;3.580;2023-04-06T07:58:31;12.38;;;7.65;;
45236;SDS011;30973;51.442;3.580;2023-04-06T08:00:57;12.73;;;7.55;;
45236;SDS011;30973;51.442;3.580;2023-04-06T08:03:25;12.73;;;7.03;;
45236;SDS011;30973;51.442;3.580;2023-04-06T08:05:54;12.50;;;7.30;;
45236;SDS011;30973;51.442;3.580;2023-04-06T08:08:21;10.68;;;7.47;;
45236;SDS011;30973;51.442;3.580;2023-04-06T08:10:49;11.90;;;7.43;;
45236;SDS011;30973;51.442;3.580;2023-04-06T08:13:16;12.00;;;7.55;;
45236;SDS011;30973;51.442;3.580;2023-04-06T08:15:43;11.70;;;6.88;;
45236;SDS011;30973;51.442;3.580;2023-04-06T08:18:11;11.80;;;7.07;;
45236;SDS011;30973;51.442;3.580;2023-04-06T08:20:38;11.98;;;7.60;;
45236;SDS011;30973;51.442;3.580;2023-04-06T08:23:06;12.20;;;7.95;;
45236;SDS011;30973;51.442;3.580;2023-04-06T08:25:35;15.57;;;7.30;;
45236;SDS011;30973;51.442;3.580;2023-04-06T08:28:02;12.32;;;7.18;;
45236;SDS011;30973;51.442;3.580;2023-04-06T08:30:36;16.23;;;7.88;;
45236;SDS011;30973;51.442;3.580;2023-04-06T08:33:03;14.68;;;8.25;;
45236;SDS011;30973;51.442;3.580;2023-04-06T08:35:30;17.63;;;9.27;;
45236;SDS011;30973;51.442;3.580;2023-04-06T08:37:57;13.43;;;7.88;;
45236;SDS011;30973;51.442;3.580;2023-04-06T08:40:24;11.00;;;8.00;;
45236;SDS011;30973;51.442;3.580;2023-04-06T08:42:55;18.13;;;9.05;;
45236;SDS011;30973;51.442;3.580;2023-04-06T08:45:22;12.88;;;8.23;;
45236;SDS011;30973;51.442;3.580;2023-04-06T08:47:50;12.05;;;8.90;;
45236;SDS011;30973;51.442;3.580;2023-04-06T08:50:17;15.27;;;8.30;;
45236;SDS011;30973;51.442;3.580;2023-04-06T08:52:46;13.88;;;9.13;;
45236;SDS011;30973;51.442;3.580;2023-04-06T08:55:14;14.68;;;7.88;;
45236;SDS011;30973;51.442;3.580;2023-04-06T08:57:42;15.07;;;8.93;;
45236;SDS011;30973;51.442;3.580;2023-04-06T09:00:09;16.50;;;7.95;;
45236;SDS011;30973;51.442;3.580;2023-04-06T09:02:40;14.55;;;9.18;;
45236;SDS011;30973;51.442;3.580;2023-04-06T09:05:10;12.90;;;7.88;;
45236;SDS011;30973;51.442;3.580;2023-04-06T09:07:40;14.57;;;7.97;;
45236;SDS011;30973;51.442;3.580;2023-04-06T09:10:07;13.25;;;8.70;;
45236;SDS011;30973;51.442;3.580;2023-04-06T09:12:34;12.65;;;8.13;;
45236;SDS011;30973;51.442;3.580;2023-04-06T09:15:01;15.05;;;8.45;;
45236;SDS011;30973;51.442;3.580;2023-04-06T09:17:31;15.20;;;9.07;;
45236;SDS011;30973;51.442;3.580;2023-04-06T09:20:03;12.88;;;8.00;;
45236;SDS011;30973;51.442;3.580;2023-04-06T09:22:35;19.58;;;9.27;;
45236;SDS011;30973;51.442;3.580;2023-04-06T09:25:03;11.95;;;8.50;;
45236;SDS011;30973;51.442;3.580;2023-04-06T09:27:31;16.88;;;8.57;;
45236;SDS011;30973;51.442;3.580;2023-04-06T09:32:32;15.77;;;9.13;;
45236;SDS011;30973;51.442;3.580;2023-04-06T09:35:06;14.43;;;9.18;;
45236;SDS011;30973;51.442;3.580;2023-04-06T09:37:33;13.67;;;9.53;;
45236;SDS011;30973;51.442;3.580;2023-04-06T09:40:04;12.30;;;8.93;;
45236;SDS011;30973;51.442;3.580;2023-04-06T09:42:31;13.40;;;9.02;;
45236;SDS011;30973;51.442;3.580;2023-04-06T09:45:03;13.20;;;9.52;;
45236;SDS011;30973;51.442;3.580;2023-04-06T09:47:30;13.38;;;8.85;;
45236;SDS011;30973;51.442;3.580;2023-04-06T09:49:58;14.77;;;9.93;;
45236;SDS011;30973;51.442;3.580;2023-04-06T09:52:32;15.63;;;10.68;;
45236;SDS011;30973;51.442;3.580;2023-04-06T09:55:01;14.63;;;10.30;;
45236;SDS011;30973;51.442;3.580;2023-04-06T09:57:48;14.13;;;9.75;;
45236;SDS011;30973;51.442;3.580;2023-04-06T10:00:20;14.77;;;10.65;;
45236;SDS011;30973;51.442;3.580;2023-04-06T10:07:48;17.95;;;11.65;;
45236;SDS011;30973;51.442;3.580;2023-04-06T10:10:27;15.38;;;11.20;;
45236;SDS011;30973;51.442;3.580;2023-04-06T10:12:54;15.55;;;11.45;;
45236;SDS011;30973;51.442;3.580;2023-04-06T10:15:22;16.02;;;11.20;;
45236;SDS011;30973;51.442;3.580;2023-04-06T10:17:49;16.70;;;12.82;;
45236;SDS011;30973;51.442;3.580;2023-04-06T10:25:28;15.38;;;11.52;;
45236;SDS011;30973;51.442;3.580;2023-04-06T10:27:58;14.73;;;11.50;;
45236;SDS011;30973;51.442;3.580;2023-04-06T10:30:26;16.73;;;11.65;;
45236;SDS011;30973;51.442;3.580;2023-04-06T10:32:56;17.52;;;11.45;;
45236;SDS011;30973;51.442;3.580;2023-04-06T10:35:36;16.50;;;11.05;;
45236;SDS011;30973;51.442;3.580;2023-04-06T10:38:05;14.85;;;11.95;;
45236;SDS011;30973;51.442;3.580;2023-04-06T10:40:34;18.63;;;10.98;;
45236;SDS011;30973;51.442;3.580;2023-04-06T10:43:12;15.52;;;10.27;;
45236;SDS011;30973;51.442;3.580;2023-04-06T10:45:40;13.35;;;10.55;;
45236;SDS011;30973;51.442;3.580;2023-04-06T10:48:19;14.55;;;11.10;;
45236;SDS011;30973;51.442;3.580;2023-04-06T10:50:55;17.25;;;10.32;;
45236;SDS011;30973;51.442;3.580;2023-04-06T10:53:22;13.10;;;9.98;;
45236;SDS011;30973;51.442;3.580;2023-04-06T10:55:50;15.80;;;10.60;;
45236;SDS011;30973;51.442;3.580;2023-04-06T10:58:18;12.00;;;9.30;;
45236;SDS011;30973;51.442;3.580;2023-04-06T11:00:45;14.73;;;9.55;;
45236;SDS011;30973;51.442;3.580;2023-04-06T11:03:17;14.70;;;11.15;;
45236;SDS011;30973;51.442;3.580;2023-04-06T11:05:48;16.35;;;10.40;;
45236;SDS011;30973;51.442;3.580;2023-04-06T11:08:29;12.70;;;9.80;;
45236;SDS011;30973;51.442;3.580;2023-04-06T11:16:11;10.30;;;8.20;;
45236;SDS011;30973;51.442;3.580;2023-04-06T11:18:45;11.63;;;9.30;;
45236;SDS011;30973;51.442;3.580;2023-04-06T11:21:34;11.50;;;8.48;;
45236;SDS011;30973;51.442;3.580;2023-04-06T11:24:07;10.75;;;8.18;;
45236;SDS011;30973;51.442;3.580;2023-04-06T11:26:54;11.77;;;8.23;;
45236;SDS011;30973;51.442;3.580;2023-04-06T11:29:22;8.93;;;7.68;;
45236;SDS011;30973;51.442;3.580;2023-04-06T11:31:50;10.85;;;7.95;;
45236;SDS011;30973;51.442;3.580;2023-04-06T11:34:18;9.00;;;6.68;;
45236;SDS011;30973;51.442;3.580;2023-04-06T11:36:46;8.88;;;6.90;;
45236;SDS011;30973;51.442;3.580;2023-04-06T11:39:18;8.90;;;6.10;;
45236;SDS011;30973;51.442;3.580;2023-04-06T11:41:57;7.40;;;6.20;;
45236;SDS011;30973;51.442;3.580;2023-04-06T11:44:40;7.45;;;6.18;;
45236;SDS011;30973;51.442;3.580;2023-04-06T11:47:29;6.93;;;5.88;;
45236;SDS011;30973;51.442;3.580;2023-04-06T11:50:05;6.63;;;5.75;;
45236;SDS011;30973;51.442;3.580;2023-04-06T11:52:32;9.57;;;6.20;;
45236;SDS011;30973;51.442;3.580;2023-04-06T11:55:09;9.02;;;6.18;;
45236;SDS011;30973;51.442;3.580;2023-04-06T11:57:37;7.30;;;5.60;;
45236;SDS011;30973;51.442;3.580;2023-04-06T12:00:05;7.40;;;5.70;;
45236;SDS011;30973;51.442;3.580;2023-04-06T12:02:32;6.25;;;5.32;;
45236;SDS011;30973;51.442;3.580;2023-04-06T12:05:02;7.82;;;5.38;;
45236;SDS011;30973;51.442;3.580;2023-04-06T12:07:29;7.93;;;5.28;;
45236;SDS011;30973;51.442;3.580;2023-04-06T12:09:56;8.25;;;5.15;;
45236;SDS011;30973;51.442;3.580;2023-04-06T12:12:23;8.30;;;5.40;;
45236;SDS011;30973;51.442;3.580;2023-04-06T12:14:51;6.60;;;5.30;;
45236;SDS011;30973;51.442;3.580;2023-04-06T12:17:18;7.60;;;5.18;;
45236;SDS011;30973;51.442;3.580;2023-04-06T12:19:45;6.50;;;5.10;;
45236;SDS011;30973;51.442;3.580;2023-04-06T12:22:12;6.60;;;5.05;;
45236;SDS011;30973;51.442;3.580;2023-04-06T12:24:39;6.70;;;4.90;;
45236;SDS011;30973;51.442;3.580;2023-04-06T12:27:06;5.85;;;5.13;;
45236;SDS011;30973;51.442;3.580;2023-04-06T12:29:38;6.95;;;4.85;;
45236;SDS011;30973;51.442;3.580;2023-04-06T12:32:04;6.20;;;5.15;;
45236;SDS011;30973;51.442;3.580;2023-04-06T12:34:32;7.38;;;5.45;;
45236;SDS011;30973;51.442;3.580;2023-04-06T12:36:59;10.63;;;6.28;;
45236;SDS011;30973;51.442;3.580;2023-04-06T12:39:29;8.00;;;5.57;;
45236;SDS011;30973;51.442;3.580;2023-04-06T12:41:57;16.15;;;7.28;;
45236;SDS011;30973;51.442;3.580;2023-04-06T12:44:24;8.43;;;6.45;;
45236;SDS011;30973;51.442;3.580;2023-04-06T12:46:52;9.75;;;6.65;;
45236;SDS011;30973;51.442;3.580;2023-04-06T12:49:20;9.52;;;6.95;;
45236;SDS011;30973;51.442;3.580;2023-04-06T12:51:48;7.63;;;6.65;;
45236;SDS011;30973;51.442;3.580;2023-04-06T12:54:15;8.65;;;6.90;;
45236;SDS011;30973;51.442;3.580;2023-04-06T12:56:43;8.48;;;6.80;;
45236;SDS011;30973;51.442;3.580;2023-04-06T12:59:10;9.15;;;6.57;;
45236;SDS011;30973;51.442;3.580;2023-04-06T13:01:39;7.85;;;6.68;;
45236;SDS011;30973;51.442;3.580;2023-04-06T13:04:05;10.57;;;7.75;;
45236;SDS011;30973;51.442;3.580;2023-04-06T13:06:32;9.63;;;8.18;;
45236;SDS011;30973;51.442;3.580;2023-04-06T13:09:00;9.57;;;8.15;;
45236;SDS011;30973;51.442;3.580;2023-04-06T13:11:27;10.48;;;8.23;;
45236;SDS011;30973;51.442;3.580;2023-04-06T13:13:54;10.07;;;9.07;;
45236;SDS011;30973;51.442;3.580;2023-04-06T13:16:21;10.73;;;8.98;;
45236;SDS011;30973;51.442;3.580;2023-04-06T13:18:48;13.13;;;9.15;;
45236;SDS011;30973;51.442;3.580;2023-04-06T13:21:16;11.98;;;9.55;;
45236;SDS011;30973;51.442;3.580;2023-04-06T13:23:43;12.10;;;10.02;;
45236;SDS011;30973;51.442;3.580;2023-04-06T13:26:10;11.20;;;10.02;;
45236;SDS011;30973;51.442;3.580;2023-04-06T13:28:37;13.30;;;10.05;;
45236;SDS011;30973;51.442;3.580;2023-04-06T13:31:08;13.77;;;9.93;;
45236;SDS011;30973;51.442;3.580;2023-04-06T13:33:40;12.45;;;9.88;;
45236;SDS011;30973;51.442;3.580;2023-04-06T13:36:07;15.55;;;11.10;;
45236;SDS011;30973;51.442;3.580;2023-04-06T13:38:35;13.20;;;10.00;;
45236;SDS011;30973;51.442;3.580;2023-04-06T13:41:05;14.65;;;10.63;;
45236;SDS011;30973;51.442;3.580;2023-04-06T13:43:32;14.25;;;11.38;;
45236;SDS011;30973;51.442;3.580;2023-04-06T13:45:58;13.75;;;10.02;;
45236;SDS011;30973;51.442;3.580;2023-04-06T13:48:27;13.77;;;10.48;;
45236;SDS011;30973;51.442;3.580;2023-04-06T13:50:54;11.55;;;10.27;;
45236;SDS011;30973;51.442;3.580;2023-04-06T13:53:21;15.40;;;10.90;;
45236;SDS011;30973;51.442;3.580;2023-04-06T13:55:54;14.18;;;11.77;;
45236;SDS011;30973;51.442;3.580;2023-04-06T13:58:22;12.20;;;9.88;;
45236;SDS011;30973;51.442;3.580;2023-04-06T14:00:49;14.07;;;10.65;;
45236;SDS011;30973;51.442;3.580;2023-04-06T14:03:16;13.32;;;10.60;;
45236;SDS011;30973;51.442;3.580;2023-04-06T14:05:44;12.52;;;10.93;;
45236;SDS011;30973;51.442;3.580;2023-04-06T14:08:11;11.98;;;10.23;;
45236;SDS011;30973;51.442;3.580;2023-04-06T14:10:39;12.18;;;10.43;;
45236;SDS011;30973;51.442;3.580;2023-04-06T14:13:09;12.80;;;10.43;;
45236;SDS011;30973;51.442;3.580;2023-04-06T14:15:36;11.90;;;9.38;;
45236;SDS011;30973;51.442;3.580;2023-04-06T14:18:04;11.82;;;10.25;;
45236;SDS011;30973;51.442;3.580;2023-04-06T14:20:31;11.07;;;9.38;;
45236;SDS011;30973;51.442;3.580;2023-04-06T14:23:02;17.70;;;10.43;;
45236;SDS011;30973;51.442;3.580;2023-04-06T14:25:29;13.65;;;10.43;;
45236;SDS011;30973;51.442;3.580;2023-04-06T14:27:58;14.30;;;11.07;;
45236;SDS011;30973;51.442;3.580;2023-04-06T14:30:25;17.50;;;11.55;;
45236;SDS011;30973;51.442;3.580;2023-04-06T14:32:51;14.30;;;10.82;;
45236;SDS011;30973;51.442;3.580;2023-04-06T14:35:19;13.15;;;9.82;;
45236;SDS011;30973;51.442;3.580;2023-04-06T14:37:46;11.85;;;9.43;;
45236;SDS011;30973;51.442;3.580;2023-04-06T14:40:13;12.20;;;10.20;;
45236;SDS011;30973;51.442;3.580;2023-04-06T14:42:40;11.82;;;9.95;;
45236;SDS011;30973;51.442;3.580;2023-04-06T14:45:07;11.80;;;10.05;;
45236;SDS011;30973;51.442;3.580;2023-04-06T14:47:34;11.30;;;9.27;;
45236;SDS011;30973;51.442;3.580;2023-04-06T14:50:01;10.73;;;9.25;;
45236;SDS011;30973;51.442;3.580;2023-04-06T14:52:28;7.50;;;6.78;;
45236;SDS011;30973;51.442;3.580;2023-04-06T14:54:57;5.88;;;4.97;;
45236;SDS011;30973;51.442;3.580;2023-04-06T14:57:24;5.80;;;3.70;;
45236;SDS011;30973;51.442;3.580;2023-04-06T14:59:52;4.60;;;2.58;;